• Join FlightAware (Why Join?)
  • Login
  • US Flag 
09:49AM EST


 

Airport Tracker/Info


-or-


 

Live Flight TrackerFlight Track Log ✈ UAL1402 ✈ 23-May-2013 ✈ KORD - KMSP

Flight Track Log - Related Links

Times and Time Zones

All times are in EDT time to prevent confusion due to time zone crossing. See the UAL1402 flight status page for this flight to view local times or setup timezone preferences in your user account.

Time Position Orientation Groundspeed Altitude Reporting Facility
EDT Latitude Longitude Course Direction KTS MPH feet Rate Location/Type
07:41AM 42.0500 -87.8667 351° North 193 222 3,600  Level Chicago TRACON
07:41AM 42.0617 -87.8636 11° North 202 232 4,500 900 Climbing Chicago Center
07:42AM 42.2495 -87.9915 350° North  Level FlightAware Approximate
07:42AM 42.1283 -87.8267 22° Northeast 253 291 5,000  Level Chicago Center
07:43AM 42.3454 -88.0155 350° North  Level FlightAware Approximate
07:43AM 42.2083 -87.7842 21° North 260 299 5,000  Level Chicago Center
07:44AM 42.4382 -88.0543 352° North  Level FlightAware Approximate
07:44AM 42.2800 -87.7733 North 266 306 6,100  Level Chicago Center
07:45AM 42.5308 -88.0865 351° North  Level FlightAware Approximate
07:45AM 42.3569 -87.7725 360° North 274 315 10,100  Level Chicago Center
07:46AM 42.6162 -88.1054 351° North  Level FlightAware Approximate
07:46AM 42.4361 -87.7808 356° North 286 329 13,800  Level Chicago Center
07:47AM 42.5150 -87.8403 331° Northwest 330 380 15,900 2,040 Climbing Chicago Center
07:48AM 42.6014 -87.9028 332° Northwest 350 403 18,000 1,020 Climbing Chicago Center
07:49AM 42.6878 -87.9675 331° Northwest 353 406 18,000  Level Chicago Center
07:50AM 42.7592 -88.0561 318° Northwest 347 399 18,000  Level Chicago Center
07:51AM 42.8386 -88.1681 314° West 350 403 18,000  Level Chicago Center
07:53AM 42.9067 -88.2639 314° West 351 404 18,000  Level Chicago Center
07:54AM 42.9758 -88.3600 315° West 353 406 18,000 780 Level Chicago Center
07:55AM 43.0436 -88.4569 314° West 350 403 19,700 960 Climbing Chicago Center
07:56AM 43.1131 -88.5558 314° West 356 410 20,000 120 Climbing Chicago Center
07:57AM 43.1825 -88.6542 314° West 356 410 20,000  Level Chicago Center
07:58AM 43.2522 -88.7536 314° West 357 411 20,000 540 Level Chicago Center
07:59AM 43.3211 -88.8553 313° West 359 413 21,200 960 Climbing Chicago Center
08:00AM 43.4053 -88.9744 314° West 369 425 22,000 360 Climbing Chicago Center
08:01AM 43.4764 -89.0778 313° West 371 427 22,000  Level Chicago Center
08:02AM 43.5475 -89.1806 314° West 369 425 22,000  Level Chicago Center
08:03AM 43.6183 -89.2844 313° West 371 427 22,000  Level Chicago Center
08:04AM 43.6900 -89.3869 314° West 370 426 22,000  Level Chicago Center
08:05AM 43.7594 -89.4900 313° West 368 423 22,000  Level Chicago Center
08:06AM 43.8281 -89.5931 313° West 365 420 22,000  Level Chicago Center
08:07AM 43.8975 -89.6953 313° West 363 418 22,000  Level Chicago Center
08:08AM 43.9778 -89.8128 314° West 360 414 22,000  Level Chicago Center
08:09AM 44.0444 -89.9144 312° West 358 412 22,000  Level Chicago Center
08:09AM 44.0781 -89.9658 312° West 359 413 22,000  Level Minneapolis Center
08:10AM 44.1392 -90.0744 308° West 357 411 22,000  Level Minneapolis Center
08:11AM 44.1997 -90.1864 307° West 361 415 22,000  Level Minneapolis Center
08:12AM 44.2617 -90.2969 308° West 362 417 22,000  Level Minneapolis Center
08:14AM 44.3225 -90.4083 307° West 361 415 22,000  Level Minneapolis Center
08:15AM 44.3831 -90.5236 306° West 367 422 22,000  Level Minneapolis Center
08:16AM 44.4356 -90.6144 309° West 361 415 22,000  Level Minneapolis Center
08:17AM 44.4828 -90.7481 296° West 380 437 22,000  Level Minneapolis Center
08:18AM 44.5417 -90.9017 298° West 384 442 22,000  Level Minneapolis Center
08:19AM 44.5975 -91.0550 297° West 379 436 22,000  Level Minneapolis Center
08:20AM 44.6472 -91.1858 298° West 380 437 22,000  Level Minneapolis Center
08:21AM 44.6950 -91.3161 297° West 379 436 22,000  Level Minneapolis Center
08:22AM 44.7422 -91.4478 297° West 378 435 22,000  Level Minneapolis Center
08:23AM 44.7986 -91.6031 297° West 377 434 22,000 -120 Level Minneapolis Center
08:24AM 44.8464 -91.7314 298° West 374 430 21,800 -1,320 Descending Minneapolis Center
08:25AM 44.8919 -91.8581 297° West 370 426 19,400 -2,460 Descending Minneapolis Center
08:26AM 44.9461 -92.0019 298° West 355 409 16,800 -2,580 Descending Minneapolis Center
08:27AM 44.9892 -92.1236 297° West 350 403 14,200 -2,520 Descending Minneapolis Center
08:28AM 45.0322 -92.2419 297° West 344 396 11,700 -1,440 Descending Minneapolis Center
08:29AM 45.0319 -92.4000 270° West 353 406 11,000 -360 Descending Minneapolis Center
08:30AM 45.0097 -92.5364 257° West 357 411 10,900 -300 Descending Minneapolis Center
08:31AM 44.9664 -92.6472 241° Southwest 320 368 10,400 -1,080 Descending Minneapolis Center
08:32AM 44.9003 -92.7547 229° Southwest 303 349 8,700 -1,620 Descending Minneapolis Center
08:33AM 44.8411 -92.8364 224° Southwest 298 343 7,100 -1,620 Descending Minneapolis Center
08:34AM 44.8061 -92.9306 242° Southwest 287 330 5,400 -1,740 Descending Minneapolis Center
08:35AM 44.8150 -93.0264 277° West 248 285 3,600 -1,800 Descending Minneapolis Center